sensor_id;sensor_type;location;lat;lon;timestamp;P1;durP1;ratioP1;P2;durP2;ratioP2
41309;SDS011;27057;51.438;-0.010;2023-12-14T00:01:18;17.23;;;4.32;;
41309;SDS011;27057;51.438;-0.010;2023-12-14T00:03:45;12.52;;;3.92;;
41309;SDS011;27057;51.438;-0.010;2023-12-14T00:06:13;16.48;;;4.30;;
41309;SDS011;27057;51.438;-0.010;2023-12-14T00:08:41;26.30;;;4.20;;
41309;SDS011;27057;51.438;-0.010;2023-12-14T00:11:09;11.23;;;3.88;;
41309;SDS011;27057;51.438;-0.010;2023-12-14T00:13:38;17.65;;;3.97;;
41309;SDS011;27057;51.438;-0.010;2023-12-14T00:16:06;20.40;;;4.70;;
41309;SDS011;27057;51.438;-0.010;2023-12-14T00:18:35;16.90;;;4.60;;
41309;SDS011;27057;51.438;-0.010;2023-12-14T00:21:03;9.45;;;3.20;;
41309;SDS011;27057;51.438;-0.010;2023-12-14T00:23:31;10.32;;;4.38;;
41309;SDS011;27057;51.438;-0.010;2023-12-14T00:26:00;20.70;;;4.88;;
41309;SDS011;27057;51.438;-0.010;2023-12-14T00:28:28;15.70;;;3.35;;
41309;SDS011;27057;51.438;-0.010;2023-12-14T00:31:00;20.35;;;4.15;;
41309;SDS011;27057;51.438;-0.010;2023-12-14T00:33:27;16.90;;;3.45;;
41309;SDS011;27057;51.438;-0.010;2023-12-14T00:35:55;18.98;;;3.88;;
41309;SDS011;27057;51.438;-0.010;2023-12-14T00:38:22;19.67;;;4.05;;
41309;SDS011;27057;51.438;-0.010;2023-12-14T00:40:50;7.78;;;3.47;;
41309;SDS011;27057;51.438;-0.010;2023-12-14T00:43:18;10.70;;;3.83;;
41309;SDS011;27057;51.438;-0.010;2023-12-14T00:45:45;17.77;;;3.47;;
41309;SDS011;27057;51.438;-0.010;2023-12-14T00:48:12;14.02;;;3.72;;
41309;SDS011;27057;51.438;-0.010;2023-12-14T00:50:40;16.60;;;3.53;;
41309;SDS011;27057;51.438;-0.010;2023-12-14T00:53:07;14.63;;;4.20;;
41309;SDS011;27057;51.438;-0.010;2023-12-14T00:55:34;11.48;;;3.65;;
41309;SDS011;27057;51.438;-0.010;2023-12-14T00:58:02;18.38;;;3.50;;
41309;SDS011;27057;51.438;-0.010;2023-12-14T01:00:29;12.68;;;3.72;;
41309;SDS011;27057;51.438;-0.010;2023-12-14T01:02:58;9.07;;;3.65;;
41309;SDS011;27057;51.438;-0.010;2023-12-14T01:05:25;13.27;;;4.30;;
41309;SDS011;27057;51.438;-0.010;2023-12-14T01:07:52;15.65;;;3.45;;
41309;SDS011;27057;51.438;-0.010;2023-12-14T01:10:20;7.95;;;3.80;;
41309;SDS011;27057;51.438;-0.010;2023-12-14T01:12:47;18.83;;;3.78;;
41309;SDS011;27057;51.438;-0.010;2023-12-14T01:15:15;12.88;;;3.25;;
41309;SDS011;27057;51.438;-0.010;2023-12-14T01:17:42;11.32;;;4.18;;
41309;SDS011;27057;51.438;-0.010;2023-12-14T01:20:10;16.20;;;4.25;;
41309;SDS011;27057;51.438;-0.010;2023-12-14T01:22:38;14.20;;;4.25;;
41309;SDS011;27057;51.438;-0.010;2023-12-14T01:25:05;16.35;;;4.30;;
41309;SDS011;27057;51.438;-0.010;2023-12-14T01:27:33;21.15;;;5.20;;
41309;SDS011;27057;51.438;-0.010;2023-12-14T01:30:00;20.40;;;4.22;;
41309;SDS011;27057;51.438;-0.010;2023-12-14T01:32:28;21.42;;;4.78;;
41309;SDS011;27057;51.438;-0.010;2023-12-14T01:34:55;30.45;;;4.68;;
41309;SDS011;27057;51.438;-0.010;2023-12-14T01:37:22;10.82;;;4.00;;
41309;SDS011;27057;51.438;-0.010;2023-12-14T01:39:50;29.90;;;5.30;;
41309;SDS011;27057;51.438;-0.010;2023-12-14T01:42:17;18.40;;;4.50;;
41309;SDS011;27057;51.438;-0.010;2023-12-14T01:44:44;16.83;;;4.72;;
41309;SDS011;27057;51.438;-0.010;2023-12-14T01:47:12;12.65;;;4.55;;
41309;SDS011;27057;51.438;-0.010;2023-12-14T01:49:39;26.08;;;9.38;;
41309;SDS011;27057;51.438;-0.010;2023-12-14T01:52:08;13.93;;;4.93;;
41309;SDS011;27057;51.438;-0.010;2023-12-14T01:54:36;18.60;;;5.38;;
41309;SDS011;27057;51.438;-0.010;2023-12-14T01:57:03;11.43;;;4.40;;
41309;SDS011;27057;51.438;-0.010;2023-12-14T01:59:31;14.35;;;4.30;;
41309;SDS011;27057;51.438;-0.010;2023-12-14T02:01:58;15.35;;;4.38;;
41309;SDS011;27057;51.438;-0.010;2023-12-14T02:04:26;18.25;;;4.65;;
41309;SDS011;27057;51.438;-0.010;2023-12-14T02:06:54;12.88;;;4.10;;
41309;SDS011;27057;51.438;-0.010;2023-12-14T02:09:21;19.67;;;4.38;;
41309;SDS011;27057;51.438;-0.010;2023-12-14T02:11:48;10.48;;;3.88;;
41309;SDS011;27057;51.438;-0.010;2023-12-14T02:14:16;13.90;;;4.75;;
41309;SDS011;27057;51.438;-0.010;2023-12-14T02:16:43;17.10;;;4.20;;
41309;SDS011;27057;51.438;-0.010;2023-12-14T02:19:10;20.20;;;4.20;;
41309;SDS011;27057;51.438;-0.010;2023-12-14T02:21:38;18.05;;;4.70;;
41309;SDS011;27057;51.438;-0.010;2023-12-14T02:24:05;20.67;;;4.47;;
41309;SDS011;27057;51.438;-0.010;2023-12-14T02:26:33;16.65;;;3.72;;
41309;SDS011;27057;51.438;-0.010;2023-12-14T02:29:00;15.00;;;4.38;;
41309;SDS011;27057;51.438;-0.010;2023-12-14T02:31:28;10.80;;;4.55;;
41309;SDS011;27057;51.438;-0.010;2023-12-14T02:33:55;20.52;;;4.65;;
41309;SDS011;27057;51.438;-0.010;2023-12-14T02:36:23;24.83;;;6.07;;
41309;SDS011;27057;51.438;-0.010;2023-12-14T02:38:50;21.58;;;5.55;;
41309;SDS011;27057;51.438;-0.010;2023-12-14T02:41:18;11.18;;;4.95;;
41309;SDS011;27057;51.438;-0.010;2023-12-14T02:43:45;20.83;;;4.47;;
41309;SDS011;27057;51.438;-0.010;2023-12-14T02:46:13;13.48;;;4.25;;
41309;SDS011;27057;51.438;-0.010;2023-12-14T02:48:42;17.13;;;4.05;;
41309;SDS011;27057;51.438;-0.010;2023-12-14T02:51:13;13.25;;;4.22;;
41309;SDS011;27057;51.438;-0.010;2023-12-14T02:53:42;21.35;;;6.00;;
41309;SDS011;27057;51.438;-0.010;2023-12-14T02:56:10;15.15;;;4.88;;
41309;SDS011;27057;51.438;-0.010;2023-12-14T02:58:38;14.20;;;4.20;;
41309;SDS011;27057;51.438;-0.010;2023-12-14T03:01:06;20.20;;;5.90;;
41309;SDS011;27057;51.438;-0.010;2023-12-14T03:03:33;19.95;;;3.67;;
41309;SDS011;27057;51.438;-0.010;2023-12-14T03:06:01;9.93;;;4.07;;
41309;SDS011;27057;51.438;-0.010;2023-12-14T03:08:28;25.48;;;4.32;;
41309;SDS011;27057;51.438;-0.010;2023-12-14T03:10:55;16.83;;;3.95;;
41309;SDS011;27057;51.438;-0.010;2023-12-14T03:13:24;18.42;;;3.92;;
41309;SDS011;27057;51.438;-0.010;2023-12-14T03:15:51;13.55;;;3.53;;
41309;SDS011;27057;51.438;-0.010;2023-12-14T03:18:18;12.27;;;4.05;;
41309;SDS011;27057;51.438;-0.010;2023-12-14T03:20:46;13.10;;;4.20;;
41309;SDS011;27057;51.438;-0.010;2023-12-14T03:23:13;14.88;;;4.50;;
41309;SDS011;27057;51.438;-0.010;2023-12-14T03:25:41;22.70;;;4.05;;
41309;SDS011;27057;51.438;-0.010;2023-12-14T03:28:08;18.25;;;3.92;;
41309;SDS011;27057;51.438;-0.010;2023-12-14T03:30:36;23.55;;;4.55;;
41309;SDS011;27057;51.438;-0.010;2023-12-14T03:33:03;20.23;;;6.13;;
41309;SDS011;27057;51.438;-0.010;2023-12-14T03:35:34;14.05;;;4.60;;
41309;SDS011;27057;51.438;-0.010;2023-12-14T03:38:02;20.05;;;4.97;;
41309;SDS011;27057;51.438;-0.010;2023-12-14T03:40:30;12.15;;;3.60;;
41309;SDS011;27057;51.438;-0.010;2023-12-14T03:42:57;19.23;;;4.18;;
41309;SDS011;27057;51.438;-0.010;2023-12-14T03:45:24;13.32;;;4.28;;
41309;SDS011;27057;51.438;-0.010;2023-12-14T03:47:52;15.63;;;4.38;;
41309;SDS011;27057;51.438;-0.010;2023-12-14T03:50:19;30.63;;;7.25;;
41309;SDS011;27057;51.438;-0.010;2023-12-14T03:52:47;21.75;;;4.68;;
41309;SDS011;27057;51.438;-0.010;2023-12-14T03:55:14;20.45;;;4.72;;
41309;SDS011;27057;51.438;-0.010;2023-12-14T03:57:42;19.55;;;5.25;;
41309;SDS011;27057;51.438;-0.010;2023-12-14T04:00:10;17.25;;;5.07;;
41309;SDS011;27057;51.438;-0.010;2023-12-14T04:02:39;17.40;;;4.55;;
41309;SDS011;27057;51.438;-0.010;2023-12-14T04:05:07;26.35;;;5.43;;
41309;SDS011;27057;51.438;-0.010;2023-12-14T04:07:36;20.92;;;5.28;;
41309;SDS011;27057;51.438;-0.010;2023-12-14T04:12:35;24.92;;;6.45;;
41309;SDS011;27057;51.438;-0.010;2023-12-14T04:15:04;11.45;;;4.28;;
41309;SDS011;27057;51.438;-0.010;2023-12-14T04:17:32;16.67;;;4.45;;
41309;SDS011;27057;51.438;-0.010;2023-12-14T04:20:00;18.13;;;5.43;;
41309;SDS011;27057;51.438;-0.010;2023-12-14T04:22:29;18.52;;;5.07;;
41309;SDS011;27057;51.438;-0.010;2023-12-14T04:24:57;21.92;;;5.70;;
41309;SDS011;27057;51.438;-0.010;2023-12-14T04:27:24;18.35;;;4.85;;
41309;SDS011;27057;51.438;-0.010;2023-12-14T04:29:55;16.55;;;5.32;;
41309;SDS011;27057;51.438;-0.010;2023-12-14T04:32:23;17.10;;;4.45;;
41309;SDS011;27057;51.438;-0.010;2023-12-14T04:34:50;16.20;;;4.72;;
41309;SDS011;27057;51.438;-0.010;2023-12-14T04:37:17;23.58;;;5.28;;
41309;SDS011;27057;51.438;-0.010;2023-12-14T04:39:45;19.75;;;4.88;;
41309;SDS011;27057;51.438;-0.010;2023-12-14T04:42:12;16.95;;;5.30;;
41309;SDS011;27057;51.438;-0.010;2023-12-14T04:44:39;17.85;;;6.20;;
41309;SDS011;27057;51.438;-0.010;2023-12-14T04:47:07;21.95;;;5.82;;
41309;SDS011;27057;51.438;-0.010;2023-12-14T04:49:35;15.48;;;5.15;;
41309;SDS011;27057;51.438;-0.010;2023-12-14T04:52:02;18.55;;;5.18;;
41309;SDS011;27057;51.438;-0.010;2023-12-14T04:54:30;21.05;;;6.22;;
41309;SDS011;27057;51.438;-0.010;2023-12-14T04:56:58;23.25;;;5.90;;
41309;SDS011;27057;51.438;-0.010;2023-12-14T04:59:25;29.55;;;6.05;;
41309;SDS011;27057;51.438;-0.010;2023-12-14T05:01:53;17.70;;;6.20;;
41309;SDS011;27057;51.438;-0.010;2023-12-14T05:04:20;22.58;;;5.68;;
41309;SDS011;27057;51.438;-0.010;2023-12-14T05:06:47;23.83;;;5.82;;
41309;SDS011;27057;51.438;-0.010;2023-12-14T05:09:15;20.02;;;5.93;;
41309;SDS011;27057;51.438;-0.010;2023-12-14T05:11:42;24.15;;;6.88;;
41309;SDS011;27057;51.438;-0.010;2023-12-14T05:14:10;18.35;;;6.47;;
41309;SDS011;27057;51.438;-0.010;2023-12-14T05:16:37;21.88;;;6.53;;
41309;SDS011;27057;51.438;-0.010;2023-12-14T05:19:04;16.52;;;5.88;;
41309;SDS011;27057;51.438;-0.010;2023-12-14T05:21:32;12.13;;;5.85;;
41309;SDS011;27057;51.438;-0.010;2023-12-14T05:23:59;20.58;;;6.38;;
41309;SDS011;27057;51.438;-0.010;2023-12-14T05:26:27;14.77;;;6.50;;
41309;SDS011;27057;51.438;-0.010;2023-12-14T05:28:54;27.45;;;6.88;;
41309;SDS011;27057;51.438;-0.010;2023-12-14T05:31:21;24.67;;;5.63;;
41309;SDS011;27057;51.438;-0.010;2023-12-14T05:33:48;19.30;;;6.53;;
41309;SDS011;27057;51.438;-0.010;2023-12-14T05:36:16;16.02;;;5.78;;
41309;SDS011;27057;51.438;-0.010;2023-12-14T05:38:43;18.17;;;5.38;;
41309;SDS011;27057;51.438;-0.010;2023-12-14T05:41:10;15.45;;;4.82;;
41309;SDS011;27057;51.438;-0.010;2023-12-14T05:43:38;20.23;;;5.85;;
41309;SDS011;27057;51.438;-0.010;2023-12-14T05:46:06;31.08;;;6.63;;
41309;SDS011;27057;51.438;-0.010;2023-12-14T05:48:33;22.13;;;5.82;;
41309;SDS011;27057;51.438;-0.010;2023-12-14T05:51:01;21.23;;;5.55;;
41309;SDS011;27057;51.438;-0.010;2023-12-14T05:53:28;19.85;;;4.70;;
41309;SDS011;27057;51.438;-0.010;2023-12-14T05:55:55;14.85;;;4.25;;
41309;SDS011;27057;51.438;-0.010;2023-12-14T05:58:23;25.40;;;5.30;;
41309;SDS011;27057;51.438;-0.010;2023-12-14T06:00:50;14.50;;;5.15;;
41309;SDS011;27057;51.438;-0.010;2023-12-14T06:03:18;12.57;;;5.03;;
41309;SDS011;27057;51.438;-0.010;2023-12-14T06:05:45;11.50;;;3.83;;
41309;SDS011;27057;51.438;-0.010;2023-12-14T06:08:13;13.77;;;4.95;;
41309;SDS011;27057;51.438;-0.010;2023-12-14T06:10:40;20.10;;;6.22;;
41309;SDS011;27057;51.438;-0.010;2023-12-14T06:13:07;17.42;;;5.32;;
41309;SDS011;27057;51.438;-0.010;2023-12-14T06:15:35;16.15;;;4.75;;
41309;SDS011;27057;51.438;-0.010;2023-12-14T06:18:02;25.15;;;5.53;;
41309;SDS011;27057;51.438;-0.010;2023-12-14T06:20:32;13.25;;;4.88;;
41309;SDS011;27057;51.438;-0.010;2023-12-14T06:22:59;18.83;;;5.63;;
41309;SDS011;27057;51.438;-0.010;2023-12-14T06:25:27;12.50;;;4.25;;
41309;SDS011;27057;51.438;-0.010;2023-12-14T06:27:55;16.98;;;4.10;;
41309;SDS011;27057;51.438;-0.010;2023-12-14T06:30:22;14.90;;;4.60;;
41309;SDS011;27057;51.438;-0.010;2023-12-14T06:32:50;16.10;;;5.15;;
41309;SDS011;27057;51.438;-0.010;2023-12-14T06:35:18;11.00;;;4.18;;
41309;SDS011;27057;51.438;-0.010;2023-12-14T06:37:45;12.23;;;5.53;;
41309;SDS011;27057;51.438;-0.010;2023-12-14T06:40:12;23.15;;;5.75;;
41309;SDS011;27057;51.438;-0.010;2023-12-14T06:42:40;23.90;;;5.55;;
41309;SDS011;27057;51.438;-0.010;2023-12-14T06:45:09;27.75;;;5.53;;
41309;SDS011;27057;51.438;-0.010;2023-12-14T06:47:37;16.50;;;5.68;;
41309;SDS011;27057;51.438;-0.010;2023-12-14T06:50:05;17.13;;;5.40;;
41309;SDS011;27057;51.438;-0.010;2023-12-14T06:52:32;19.33;;;6.13;;
41309;SDS011;27057;51.438;-0.010;2023-12-14T06:55:00;16.42;;;5.40;;
41309;SDS011;27057;51.438;-0.010;2023-12-14T06:57:27;14.20;;;5.32;;
41309;SDS011;27057;51.438;-0.010;2023-12-14T06:59:55;18.40;;;5.20;;
41309;SDS011;27057;51.438;-0.010;2023-12-14T07:02:23;25.27;;;6.18;;
41309;SDS011;27057;51.438;-0.010;2023-12-14T07:04:50;16.73;;;7.03;;
41309;SDS011;27057;51.438;-0.010;2023-12-14T07:07:18;22.73;;;6.25;;
41309;SDS011;27057;51.438;-0.010;2023-12-14T07:09:45;18.52;;;5.65;;
41309;SDS011;27057;51.438;-0.010;2023-12-14T07:12:13;30.85;;;6.10;;
41309;SDS011;27057;51.438;-0.010;2023-12-14T07:14:40;24.83;;;6.03;;
41309;SDS011;27057;51.438;-0.010;2023-12-14T07:17:08;19.15;;;5.45;;
41309;SDS011;27057;51.438;-0.010;2023-12-14T07:19:35;23.67;;;6.13;;
41309;SDS011;27057;51.438;-0.010;2023-12-14T07:22:03;16.65;;;4.15;;
41309;SDS011;27057;51.438;-0.010;2023-12-14T07:24:30;20.98;;;5.15;;
41309;SDS011;27057;51.438;-0.010;2023-12-14T07:27:10;24.63;;;6.40;;
41309;SDS011;27057;51.438;-0.010;2023-12-14T07:29:37;14.45;;;4.55;;
41309;SDS011;27057;51.438;-0.010;2023-12-14T07:32:05;22.50;;;4.93;;
41309;SDS011;27057;51.438;-0.010;2023-12-14T07:34:32;21.35;;;5.30;;
41309;SDS011;27057;51.438;-0.010;2023-12-14T07:37:00;16.60;;;4.47;;
41309;SDS011;27057;51.438;-0.010;2023-12-14T07:39:28;12.82;;;4.28;;
41309;SDS011;27057;51.438;-0.010;2023-12-14T07:41:55;21.15;;;5.38;;
41309;SDS011;27057;51.438;-0.010;2023-12-14T07:44:23;12.88;;;4.75;;
41309;SDS011;27057;51.438;-0.010;2023-12-14T07:46:52;25.40;;;5.40;;
41309;SDS011;27057;51.438;-0.010;2023-12-14T07:49:19;22.70;;;5.20;;
41309;SDS011;27057;51.438;-0.010;2023-12-14T07:51:49;18.48;;;5.15;;
41309;SDS011;27057;51.438;-0.010;2023-12-14T07:54:17;21.65;;;5.82;;
41309;SDS011;27057;51.438;-0.010;2023-12-14T07:56:45;20.92;;;4.93;;
41309;SDS011;27057;51.438;-0.010;2023-12-14T07:59:12;14.15;;;4.80;;
41309;SDS011;27057;51.438;-0.010;2023-12-14T08:01:40;23.98;;;6.25;;
41309;SDS011;27057;51.438;-0.010;2023-12-14T08:04:08;26.33;;;5.70;;
41309;SDS011;27057;51.438;-0.010;2023-12-14T08:06:38;24.98;;;6.28;;
41309;SDS011;27057;51.438;-0.010;2023-12-14T08:09:09;22.80;;;5.97;;
41309;SDS011;27057;51.438;-0.010;2023-12-14T08:11:36;17.15;;;4.88;;
41309;SDS011;27057;51.438;-0.010;2023-12-14T08:14:04;29.75;;;4.97;;
41309;SDS011;27057;51.438;-0.010;2023-12-14T08:16:31;12.77;;;4.80;;
41309;SDS011;27057;51.438;-0.010;2023-12-14T08:18:59;28.77;;;5.60;;
41309;SDS011;27057;51.438;-0.010;2023-12-14T08:21:26;13.98;;;5.53;;
41309;SDS011;27057;51.438;-0.010;2023-12-14T08:23:53;21.48;;;4.90;;
41309;SDS011;27057;51.438;-0.010;2023-12-14T08:26:21;29.35;;;5.30;;
41309;SDS011;27057;51.438;-0.010;2023-12-14T08:28:49;14.05;;;4.43;;
41309;SDS011;27057;51.438;-0.010;2023-12-14T08:31:16;19.50;;;4.63;;
41309;SDS011;27057;51.438;-0.010;2023-12-14T08:33:43;14.43;;;4.57;;
41309;SDS011;27057;51.438;-0.010;2023-12-14T08:36:16;15.82;;;4.65;;
41309;SDS011;27057;51.438;-0.010;2023-12-14T08:38:44;28.48;;;5.07;;
41309;SDS011;27057;51.438;-0.010;2023-12-14T08:41:14;18.52;;;4.35;;
41309;SDS011;27057;51.438;-0.010;2023-12-14T08:43:42;15.52;;;3.75;;
41309;SDS011;27057;51.438;-0.010;2023-12-14T08:46:10;21.60;;;4.93;;
41309;SDS011;27057;51.438;-0.010;2023-12-14T08:48:38;14.82;;;4.80;;
41309;SDS011;27057;51.438;-0.010;2023-12-14T08:51:05;20.30;;;4.60;;
41309;SDS011;27057;51.438;-0.010;2023-12-14T08:53:33;22.85;;;5.00;;
41309;SDS011;27057;51.438;-0.010;2023-12-14T08:56:00;18.48;;;4.88;;
41309;SDS011;27057;51.438;-0.010;2023-12-14T08:58:29;30.98;;;4.85;;
41309;SDS011;27057;51.438;-0.010;2023-12-14T09:00:56;17.15;;;3.70;;
41309;SDS011;27057;51.438;-0.010;2023-12-14T09:03:24;16.88;;;4.43;;
41309;SDS011;27057;51.438;-0.010;2023-12-14T09:05:53;19.83;;;4.35;;
41309;SDS011;27057;51.438;-0.010;2023-12-14T09:08:21;14.93;;;4.75;;
41309;SDS011;27057;51.438;-0.010;2023-12-14T09:10:48;17.25;;;5.80;;
41309;SDS011;27057;51.438;-0.010;2023-12-14T09:13:16;19.00;;;5.20;;
41309;SDS011;27057;51.438;-0.010;2023-12-14T09:15:43;21.63;;;6.10;;
41309;SDS011;27057;51.438;-0.010;2023-12-14T09:18:11;20.10;;;5.65;;
41309;SDS011;27057;51.438;-0.010;2023-12-14T09:20:38;19.85;;;5.82;;
41309;SDS011;27057;51.438;-0.010;2023-12-14T09:23:07;18.15;;;6.28;;
41309;SDS011;27057;51.438;-0.010;2023-12-14T09:25:35;21.27;;;5.38;;
41309;SDS011;27057;51.438;-0.010;2023-12-14T09:28:03;30.67;;;6.57;;
41309;SDS011;27057;51.438;-0.010;2023-12-14T09:30:30;23.75;;;5.43;;
41309;SDS011;27057;51.438;-0.010;2023-12-14T09:32:57;17.15;;;4.63;;
41309;SDS011;27057;51.438;-0.010;2023-12-14T09:35:25;19.83;;;4.80;;
41309;SDS011;27057;51.438;-0.010;2023-12-14T09:37:53;17.02;;;4.82;;
41309;SDS011;27057;51.438;-0.010;2023-12-14T09:40:20;16.73;;;4.78;;
41309;SDS011;27057;51.438;-0.010;2023-12-14T09:42:49;15.05;;;5.05;;
41309;SDS011;27057;51.438;-0.010;2023-12-14T09:45:16;30.00;;;5.80;;
41309;SDS011;27057;51.438;-0.010;2023-12-14T09:47:44;28.52;;;5.50;;
41309;SDS011;27057;51.438;-0.010;2023-12-14T09:50:13;14.85;;;5.30;;
41309;SDS011;27057;51.438;-0.010;2023-12-14T09:52:42;19.98;;;4.78;;
41309;SDS011;27057;51.438;-0.010;2023-12-14T09:55:12;13.35;;;4.63;;
41309;SDS011;27057;51.438;-0.010;2023-12-14T09:57:40;12.20;;;3.78;;
41309;SDS011;27057;51.438;-0.010;2023-12-14T10:00:07;22.80;;;4.65;;
41309;SDS011;27057;51.438;-0.010;2023-12-14T10:02:37;17.58;;;4.00;;
41309;SDS011;27057;51.438;-0.010;2023-12-14T10:05:06;17.20;;;4.70;;
41309;SDS011;27057;51.438;-0.010;2023-12-14T10:07:43;15.25;;;4.22;;
41309;SDS011;27057;51.438;-0.010;2023-12-14T10:10:11;15.40;;;4.65;;
41309;SDS011;27057;51.438;-0.010;2023-12-14T10:12:58;22.75;;;5.15;;
41309;SDS011;27057;51.438;-0.010;2023-12-14T10:15:27;22.90;;;4.47;;
41309;SDS011;27057;51.438;-0.010;2023-12-14T10:17:54;16.95;;;4.57;;
41309;SDS011;27057;51.438;-0.010;2023-12-14T10:20:22;14.77;;;3.78;;
41309;SDS011;27057;51.438;-0.010;2023-12-14T10:22:50;20.48;;;4.55;;
41309;SDS011;27057;51.438;-0.010;2023-12-14T10:25:18;16.67;;;3.85;;
41309;SDS011;27057;51.438;-0.010;2023-12-14T10:27:46;16.40;;;4.10;;
41309;SDS011;27057;51.438;-0.010;2023-12-14T10:30:15;14.27;;;4.20;;
41309;SDS011;27057;51.438;-0.010;2023-12-14T10:32:42;12.23;;;4.10;;
41309;SDS011;27057;51.438;-0.010;2023-12-14T10:35:10;13.27;;;3.90;;
41309;SDS011;27057;51.438;-0.010;2023-12-14T10:37:39;9.18;;;3.35;;
41309;SDS011;27057;51.438;-0.010;2023-12-14T10:40:07;8.30;;;3.30;;
41309;SDS011;27057;51.438;-0.010;2023-12-14T10:42:37;15.32;;;2.53;;
41309;SDS011;27057;51.438;-0.010;2023-12-14T10:45:11;15.80;;;3.05;;
41309;SDS011;27057;51.438;-0.010;2023-12-14T10:47:46;15.90;;;3.70;;
41309;SDS011;27057;51.438;-0.010;2023-12-14T10:50:17;19.13;;;3.40;;
41309;SDS011;27057;51.438;-0.010;2023-12-14T10:52:46;19.27;;;4.43;;
41309;SDS011;27057;51.438;-0.010;2023-12-14T10:55:21;19.38;;;2.45;;
41309;SDS011;27057;51.438;-0.010;2023-12-14T10:57:53;8.45;;;2.72;;
41309;SDS011;27057;51.438;-0.010;2023-12-14T11:00:21;8.10;;;2.03;;
41309;SDS011;27057;51.438;-0.010;2023-12-14T11:02:48;3.67;;;1.52;;
41309;SDS011;27057;51.438;-0.010;2023-12-14T11:05:16;6.20;;;2.05;;
41309;SDS011;27057;51.438;-0.010;2023-12-14T11:07:53;8.50;;;2.17;;
41309;SDS011;27057;51.438;-0.010;2023-12-14T11:10:35;6.30;;;2.47;;
41309;SDS011;27057;51.438;-0.010;2023-12-14T11:13:11;11.45;;;3.15;;
41309;SDS011;27057;51.438;-0.010;2023-12-14T11:15:48;9.10;;;2.85;;
41309;SDS011;27057;51.438;-0.010;2023-12-14T11:23:13;21.58;;;3.05;;
41309;SDS011;27057;51.438;-0.010;2023-12-14T11:25:41;10.60;;;3.33;;
41309;SDS011;27057;51.438;-0.010;2023-12-14T11:28:13;12.25;;;3.00;;
41309;SDS011;27057;51.438;-0.010;2023-12-14T11:30:41;16.40;;;2.15;;
41309;SDS011;27057;51.438;-0.010;2023-12-14T11:33:21;8.88;;;2.78;;
41309;SDS011;27057;51.438;-0.010;2023-12-14T11:35:50;17.77;;;3.75;;
41309;SDS011;27057;51.438;-0.010;2023-12-14T11:38:21;11.95;;;3.10;;
41309;SDS011;27057;51.438;-0.010;2023-12-14T11:40:50;23.38;;;3.60;;
41309;SDS011;27057;51.438;-0.010;2023-12-14T11:43:18;14.75;;;3.13;;
41309;SDS011;27057;51.438;-0.010;2023-12-14T11:45:48;10.02;;;2.72;;
41309;SDS011;27057;51.438;-0.010;2023-12-14T11:48:16;10.85;;;3.63;;
41309;SDS011;27057;51.438;-0.010;2023-12-14T11:50:45;12.02;;;3.63;;
41309;SDS011;27057;51.438;-0.010;2023-12-14T11:53:12;6.75;;;2.67;;
41309;SDS011;27057;51.438;-0.010;2023-12-14T11:55:41;15.23;;;4.43;;
41309;SDS011;27057;51.438;-0.010;2023-12-14T11:58:11;10.00;;;3.20;;
41309;SDS011;27057;51.438;-0.010;2023-12-14T12:00:41;21.88;;;3.50;;
41309;SDS011;27057;51.438;-0.010;2023-12-14T12:05:44;11.63;;;3.78;;
41309;SDS011;27057;51.438;-0.010;2023-12-14T12:08:14;11.75;;;2.60;;
41309;SDS011;27057;51.438;-0.010;2023-12-14T12:10:46;9.73;;;3.25;;
41309;SDS011;27057;51.438;-0.010;2023-12-14T12:13:16;16.60;;;3.20;;
41309;SDS011;27057;51.438;-0.010;2023-12-14T12:15:44;12.80;;;3.15;;
41309;SDS011;27057;51.438;-0.010;2023-12-14T12:18:14;14.75;;;3.45;;
41309;SDS011;27057;51.438;-0.010;2023-12-14T12:20:43;17.80;;;3.83;;
41309;SDS011;27057;51.438;-0.010;2023-12-14T12:23:11;8.30;;;3.50;;
41309;SDS011;27057;51.438;-0.010;2023-12-14T12:25:38;16.00;;;3.45;;
41309;SDS011;27057;51.438;-0.010;2023-12-14T12:28:06;17.33;;;3.83;;
41309;SDS011;27057;51.438;-0.010;2023-12-14T12:30:33;16.50;;;4.03;;
41309;SDS011;27057;51.438;-0.010;2023-12-14T12:33:06;15.27;;;4.70;;
41309;SDS011;27057;51.438;-0.010;2023-12-14T12:35:33;13.90;;;4.15;;
41309;SDS011;27057;51.438;-0.010;2023-12-14T12:38:01;17.95;;;4.78;;
41309;SDS011;27057;51.438;-0.010;2023-12-14T12:40:30;19.27;;;5.13;;
41309;SDS011;27057;51.438;-0.010;2023-12-14T12:42:58;16.50;;;4.97;;
41309;SDS011;27057;51.438;-0.010;2023-12-14T12:45:26;7.30;;;3.80;;
41309;SDS011;27057;51.438;-0.010;2023-12-14T12:47:55;11.77;;;3.67;;
41309;SDS011;27057;51.438;-0.010;2023-12-14T12:50:23;12.18;;;4.25;;
41309;SDS011;27057;51.438;-0.010;2023-12-14T12:52:51;27.23;;;5.28;;
41309;SDS011;27057;51.438;-0.010;2023-12-14T12:55:18;15.68;;;3.92;;
41309;SDS011;27057;51.438;-0.010;2023-12-14T12:57:46;14.50;;;4.75;;
41309;SDS011;27057;51.438;-0.010;2023-12-14T13:00:14;15.57;;;3.90;;
41309;SDS011;27057;51.438;-0.010;2023-12-14T13:02:44;20.70;;;5.20;;
41309;SDS011;27057;51.438;-0.010;2023-12-14T13:05:12;15.32;;;4.35;;
41309;SDS011;27057;51.438;-0.010;2023-12-14T13:07:44;18.83;;;4.80;;
41309;SDS011;27057;51.438;-0.010;2023-12-14T13:10:13;23.65;;;4.78;;
41309;SDS011;27057;51.438;-0.010;2023-12-14T13:12:56;11.73;;;3.30;;
41309;SDS011;27057;51.438;-0.010;2023-12-14T13:15:24;11.63;;;4.18;;
41309;SDS011;27057;51.438;-0.010;2023-12-14T13:17:53;8.80;;;3.30;;
41309;SDS011;27057;51.438;-0.010;2023-12-14T13:20:21;17.35;;;3.08;;
41309;SDS011;27057;51.438;-0.010;2023-12-14T13:22:49;11.57;;;4.18;;
41309;SDS011;27057;51.438;-0.010;2023-12-14T13:25:17;14.25;;;4.00;;
41309;SDS011;27057;51.438;-0.010;2023-12-14T13:27:44;21.42;;;3.42;;
41309;SDS011;27057;51.438;-0.010;2023-12-14T13:30:12;10.27;;;3.60;;
41309;SDS011;27057;51.438;-0.010;2023-12-14T13:32:44;20.77;;;4.07;;
41309;SDS011;27057;51.438;-0.010;2023-12-14T13:35:12;19.15;;;3.13;;
41309;SDS011;27057;51.438;-0.010;2023-12-14T13:37:40;19.17;;;4.75;;
41309;SDS011;27057;51.438;-0.010;2023-12-14T13:40:08;20.50;;;4.35;;
41309;SDS011;27057;51.438;-0.010;2023-12-14T13:42:40;17.98;;;4.63;;
41309;SDS011;27057;51.438;-0.010;2023-12-14T13:45:28;11.50;;;4.93;;
41309;SDS011;27057;51.438;-0.010;2023-12-14T13:47:57;18.58;;;4.45;;
41309;SDS011;27057;51.438;-0.010;2023-12-14T13:50:25;45.25;;;9.70;;
41309;SDS011;27057;51.438;-0.010;2023-12-14T13:52:55;17.42;;;4.80;;
41309;SDS011;27057;51.438;-0.010;2023-12-14T13:55:23;17.33;;;4.80;;
41309;SDS011;27057;51.438;-0.010;2023-12-14T13:57:50;18.58;;;4.90;;
41309;SDS011;27057;51.438;-0.010;2023-12-14T14:00:18;22.77;;;5.68;;
41309;SDS011;27057;51.438;-0.010;2023-12-14T14:02:46;18.35;;;4.90;;
41309;SDS011;27057;51.438;-0.010;2023-12-14T14:05:13;19.13;;;4.57;;
41309;SDS011;27057;51.438;-0.010;2023-12-14T14:07:41;15.35;;;4.78;;
41309;SDS011;27057;51.438;-0.010;2023-12-14T14:10:08;15.85;;;5.25;;
41309;SDS011;27057;51.438;-0.010;2023-12-14T14:12:37;18.35;;;6.70;;
41309;SDS011;27057;51.438;-0.010;2023-12-14T14:15:05;18.10;;;5.45;;
41309;SDS011;27057;51.438;-0.010;2023-12-14T14:17:33;17.70;;;6.40;;
41309;SDS011;27057;51.438;-0.010;2023-12-14T14:20:00;22.23;;;6.47;;
41309;SDS011;27057;51.438;-0.010;2023-12-14T14:22:28;18.05;;;6.80;;
41309;SDS011;27057;51.438;-0.010;2023-12-14T14:24:56;22.35;;;6.28;;
41309;SDS011;27057;51.438;-0.010;2023-12-14T14:27:24;16.90;;;6.60;;
41309;SDS011;27057;51.438;-0.010;2023-12-14T14:29:51;26.15;;;7.40;;
41309;SDS011;27057;51.438;-0.010;2023-12-14T14:32:22;22.77;;;6.15;;
41309;SDS011;27057;51.438;-0.010;2023-12-14T14:34:50;19.00;;;6.53;;
41309;SDS011;27057;51.438;-0.010;2023-12-14T14:37:17;18.08;;;5.57;;
41309;SDS011;27057;51.438;-0.010;2023-12-14T14:39:45;18.40;;;6.57;;